createdAt,value
2018-04-19T00:02:38.691Z,56.27
2018-04-19T00:05:42.047Z,56.16
2018-04-19T00:08:45.284Z,56.48
2018-04-19T00:11:48.569Z,56.25
2018-04-19T00:14:51.881Z,56.55
2018-04-19T00:17:55.169Z,56.77
2018-04-19T00:20:58.453Z,57.14
2018-04-19T00:24:01.838Z,57.53
2018-04-19T00:27:05.133Z,58.26
2018-04-19T00:30:08.365Z,58.17
2018-04-19T00:33:11.737Z,58.19
2018-04-19T00:36:15.025Z,58.64
2018-04-19T00:39:18.323Z,58.46
2018-04-19T00:42:21.641Z,58.75
2018-04-19T00:45:24.965Z,58.79
2018-04-19T00:48:28.162Z,58.68
2018-04-19T00:51:31.396Z,58.46
2018-04-19T00:54:34.612Z,59.12
2018-04-19T00:57:37.898Z,59.60
2018-04-19T01:00:41.200Z,58.47
2018-04-19T01:03:44.600Z,59.44
2018-04-19T01:06:47.895Z,59.24
2018-04-19T01:09:51.211Z,60.06
2018-04-19T01:12:54.591Z,59.81
2018-04-19T01:15:57.846Z,60.02
2018-04-19T01:19:01.104Z,60.35
2018-04-19T01:22:04.273Z,60.48
2018-04-19T01:25:07.576Z,60.70
2018-04-19T01:28:10.866Z,59.98
2018-04-19T01:31:14.192Z,60.40
2018-04-19T01:34:17.620Z,60.48
2018-04-19T01:37:20.793Z,60.46
2018-04-19T01:40:24.304Z,60.96
2018-04-19T01:43:27.695Z,60.81
2018-04-19T01:46:30.913Z,61.15
2018-04-19T01:49:34.157Z,60.87
2018-04-19T01:52:37.557Z,60.94
2018-04-19T01:55:40.872Z,61.45
2018-04-19T01:58:44.167Z,61.04
2018-04-19T02:01:47.552Z,61.21
2018-04-19T02:04:50.774Z,60.70
2018-04-19T02:07:54.040Z,60.59
2018-04-19T02:10:57.272Z,60.96
2018-04-19T02:14:00.612Z,61.49
2018-04-19T02:17:03.871Z,61.54
2018-04-19T02:20:07.177Z,61.65
2018-04-19T02:23:10.528Z,61.78
2018-04-19T02:26:13.772Z,61.61
2018-04-19T02:29:18.055Z,61.18
2018-04-19T02:32:21.487Z,61.83
2018-04-19T02:35:24.847Z,61.22
2018-04-19T02:38:28.146Z,61.16
2018-04-19T02:41:31.521Z,61.76
2018-04-19T02:44:34.844Z,61.39
2018-04-19T02:47:38.152Z,60.58
2018-04-19T02:50:41.550Z,60.72
2018-04-19T02:53:44.788Z,61.49
2018-04-19T02:56:48.144Z,61.92
2018-04-19T02:59:51.455Z,62.26
2018-04-19T03:02:54.657Z,62.84
2018-04-19T03:05:57.935Z,62.50
2018-04-19T03:09:01.229Z,62.83
2018-04-19T03:12:04.533Z,63.31
2018-04-19T03:15:07.831Z,62.95
2018-04-19T03:18:11.041Z,63.32
2018-04-19T03:21:14.429Z,62.25
2018-04-19T03:24:17.717Z,62.35
2018-04-19T03:27:21.028Z,62.99
2018-04-19T03:30:24.824Z,63.07
2018-04-19T03:33:28.015Z,63.61
2018-04-19T03:36:31.244Z,63.16
2018-04-19T03:39:34.625Z,63.25
2018-04-19T03:42:37.916Z,63.51
2018-04-19T03:45:41.216Z,63.42
2018-04-19T03:48:44.515Z,63.72
2018-04-19T03:51:47.907Z,62.60
2018-04-19T03:54:51.122Z,62.71
2018-04-19T03:57:54.362Z,61.85
2018-04-19T04:00:57.692Z,61.95
2018-04-19T04:04:01.230Z,62.70
2018-04-19T04:07:04.480Z,61.94
2018-04-19T04:10:07.799Z,62.22
2018-04-19T04:13:11.179Z,61.13
2018-04-19T04:16:24.461Z,62.56
2018-04-19T04:20:12.231Z,62.58
2018-04-19T04:24:19.028Z,62.26
2018-04-19T04:27:22.272Z,62.98
2018-04-19T04:30:25.587Z,62.56
2018-04-19T04:33:28.848Z,62.18
2018-04-19T04:36:32.141Z,62.91
2018-04-19T04:39:35.477Z,62.27
2018-04-19T04:42:38.727Z,61.99
2018-04-19T04:45:41.943Z,62.63
2018-04-19T04:48:45.333Z,62.12
2018-04-19T04:51:48.586Z,62.03
2018-04-19T04:54:51.948Z,62.10
2018-04-19T04:57:55.247Z,62.51
2018-04-19T05:00:58.599Z,62.60
2018-04-19T05:04:01.893Z,62.33
2018-04-19T05:07:05.227Z,62.81
2018-04-19T05:10:08.608Z,62.43
2018-04-19T05:13:11.913Z,61.19
2018-04-19T05:16:15.204Z,61.57
2018-04-19T05:19:18.440Z,62.63
2018-04-19T05:22:21.692Z,62.71
2018-04-19T05:25:25.040Z,63.38
2018-04-19T05:28:28.207Z,63.36
2018-04-19T05:31:31.441Z,62.16
2018-04-19T05:34:34.683Z,62.75
2018-04-19T05:37:37.964Z,61.73
2018-04-19T05:40:41.168Z,61.15
2018-04-19T05:43:44.463Z,60.20
2018-04-19T05:46:47.932Z,57.95
2018-04-19T05:49:51.201Z,58.04
2018-04-19T05:52:54.463Z,55.74
2018-04-19T05:55:57.787Z,56.51
2018-04-19T05:59:01.071Z,57.04
2018-04-19T06:02:04.291Z,56.50
2018-04-19T06:05:07.481Z,56.57
2018-04-19T06:08:10.744Z,56.13
2018-04-19T06:11:13.985Z,54.48
2018-04-19T06:14:17.247Z,53.74
2018-04-19T06:17:20.523Z,52.24
2018-04-19T06:20:23.752Z,51.55
2018-04-19T06:23:27.021Z,51.14
2018-04-19T06:26:30.328Z,49.72
2018-04-19T06:29:33.639Z,49.61
2018-04-19T06:32:36.924Z,48.95
2018-04-19T06:35:40.215Z,49.13
2018-04-19T06:38:43.515Z,48.53
2018-04-19T06:41:46.662Z,48.24
2018-04-19T06:44:49.919Z,47.93
2018-04-19T06:47:53.216Z,47.86
2018-04-19T06:50:56.502Z,47.64
2018-04-19T06:53:59.797Z,47.23
2018-04-19T06:57:03.128Z,47.09
2018-04-19T07:00:06.323Z,47.29
2018-04-19T07:03:09.577Z,47.29
2018-04-19T07:06:12.784Z,47.50
2018-04-19T07:09:16.167Z,46.68
2018-04-19T07:12:19.341Z,46.43
2018-04-19T07:15:22.607Z,46.61
2018-04-19T07:18:25.881Z,46.10
2018-04-19T07:21:29.221Z,45.90
2018-04-19T07:24:32.469Z,46.23
2018-04-19T07:27:35.759Z,45.79
2018-04-19T07:30:39.055Z,45.91
2018-04-19T07:33:42.280Z,45.15
2018-04-19T07:36:45.551Z,45.44
2018-04-19T07:39:48.840Z,44.58
2018-04-19T07:42:52.184Z,44.52
2018-04-19T07:45:55.377Z,44.63
2018-04-19T07:48:58.585Z,44.27
2018-04-19T07:52:01.759Z,45.05
2018-04-19T07:55:05.030Z,44.43
2018-04-19T07:58:08.259Z,43.84
2018-04-19T08:01:11.524Z,44.07
2018-04-19T08:04:14.815Z,44.05
2018-04-19T08:07:18.112Z,43.62
2018-04-19T08:10:21.407Z,43.06
2018-04-19T08:13:25.632Z,42.56
2018-04-19T08:16:28.929Z,43.41
2018-04-19T08:19:32.198Z,43.04
2018-04-19T08:22:35.391Z,43.05
2018-04-19T08:25:38.617Z,42.26
2018-04-19T08:28:41.842Z,41.85
2018-04-19T08:31:45.054Z,42.36
2018-04-19T08:34:48.367Z,40.54
2018-04-19T08:37:51.596Z,40.62
2018-04-19T08:40:55.003Z,39.99
2018-04-19T08:43:58.229Z,39.23
2018-04-19T08:47:01.412Z,39.75
2018-04-19T08:50:04.754Z,40.06
2018-04-19T08:53:08.009Z,39.02
2018-04-19T08:56:11.208Z,39.28
2018-04-19T08:59:14.468Z,38.54
2018-04-19T09:02:17.771Z,37.27
2018-04-19T09:05:21.011Z,36.81
2018-04-19T09:08:24.372Z,35.90
2018-04-19T09:11:27.668Z,36.07
2018-04-19T09:14:30.902Z,36.52
2018-04-19T09:17:34.355Z,36.24
2018-04-19T09:20:37.672Z,35.49
2018-04-19T09:23:40.952Z,36.29
2018-04-19T09:26:44.293Z,35.35
2018-04-19T09:29:47.553Z,36.16
2018-04-19T09:32:50.862Z,36.10
2018-04-19T09:35:54.196Z,35.30
2018-04-19T09:38:57.448Z,35.56
2018-04-19T09:42:00.692Z,35.54
2018-04-19T09:45:03.947Z,35.62
2018-04-19T09:48:07.239Z,34.89
2018-04-19T09:51:10.460Z,35.18
2018-04-19T09:54:13.688Z,34.64
2018-04-19T09:57:16.923Z,34.34
2018-04-19T10:00:20.200Z,34.93
2018-04-19T10:03:23.410Z,34.39
2018-04-19T10:06:26.721Z,34.22
2018-04-19T10:09:30.003Z,33.21
2018-04-19T10:12:33.231Z,33.30
2018-04-19T10:15:36.491Z,33.36
2018-04-19T10:18:39.788Z,32.98
2018-04-19T10:21:43.013Z,32.21
2018-04-19T10:24:46.212Z,32.19
2018-04-19T10:27:49.524Z,32.96
2018-04-19T10:30:52.699Z,32.72
2018-04-19T10:33:56.010Z,33.42
2018-04-19T10:36:59.294Z,32.36
2018-04-19T10:40:02.572Z,33.13
2018-04-19T10:43:05.896Z,33.30
2018-04-19T10:46:09.156Z,32.40
2018-04-19T10:49:12.448Z,33.35
2018-04-19T10:52:15.674Z,33.81
2018-04-19T10:55:18.956Z,33.75
2018-04-19T10:58:22.156Z,34.25
2018-04-19T11:01:25.440Z,33.40
2018-04-19T11:04:29.083Z,33.31
2018-04-19T11:07:32.372Z,32.98
2018-04-19T11:10:35.643Z,33.92
2018-04-19T11:13:39.748Z,33.71
2018-04-19T11:16:43.313Z,33.76
2018-04-19T11:19:47.161Z,33.80
2018-04-19T11:22:50.577Z,32.42
2018-04-19T11:25:54.954Z,32.19
2018-04-19T11:28:58.345Z,32.25
2018-04-19T11:32:03.380Z,31.02
2018-04-19T11:35:07.032Z,31.48
2018-04-19T11:38:10.372Z,30.72
2018-04-19T11:41:14.771Z,30.81
2018-04-19T11:44:19.247Z,32.43
2018-04-19T11:47:23.902Z,31.49
2018-04-19T11:50:27.971Z,30.76
2018-04-19T11:53:32.036Z,29.42
2018-04-19T11:56:36.420Z,30.00
2018-04-19T11:59:41.811Z,30.43
2018-04-19T12:02:45.546Z,29.30
2018-04-19T12:05:49.129Z,30.17
2018-04-19T12:08:53.926Z,29.66
2018-04-19T12:11:58.736Z,28.94
2018-04-19T12:15:03.120Z,27.95
2018-04-19T12:18:07.773Z,28.18
2018-04-19T12:21:11.463Z,29.31
2018-04-19T12:24:14.721Z,27.65
2018-04-19T12:27:18.025Z,26.91
2018-04-19T12:30:21.178Z,25.65
2018-04-19T12:33:24.368Z,26.58
2018-04-19T12:36:27.611Z,24.87
2018-04-19T12:39:30.910Z,24.42
2018-04-19T12:42:34.132Z,24.70
2018-04-19T12:45:38.414Z,24.61
2018-04-19T12:48:41.572Z,22.86
2018-04-19T12:51:44.792Z,24.84
2018-04-19T12:54:48.044Z,25.28
2018-04-19T12:57:51.369Z,23.91
2018-04-19T13:00:54.656Z,23.92
2018-04-19T13:03:58.001Z,23.27
2018-04-19T13:07:01.164Z,22.26
2018-04-19T13:10:04.449Z,23.27
2018-04-19T13:13:07.654Z,23.33
2018-04-19T13:16:11.013Z,23.30
2018-04-19T13:19:14.321Z,22.52
2018-04-19T13:22:17.629Z,23.96
2018-04-19T13:25:20.965Z,23.76
2018-04-19T13:28:24.217Z,22.26
2018-04-19T13:31:27.404Z,22.68
2018-04-19T13:34:30.724Z,22.08
2018-04-19T13:37:34.039Z,22.60
2018-04-19T13:40:37.320Z,22.37
2018-04-19T13:43:40.561Z,22.04
2018-04-19T13:46:43.788Z,22.53
2018-04-19T13:49:47.008Z,22.26
2018-04-19T13:52:51.326Z,22.90
2018-04-19T13:55:54.755Z,22.52
2018-04-19T13:58:57.951Z,21.88
2018-04-19T14:02:01.232Z,21.85
2018-04-19T14:05:04.513Z,22.10
2018-04-19T14:08:07.793Z,20.50
2018-04-19T14:11:11.216Z,20.37
2018-04-19T14:14:14.576Z,20.85
2018-04-19T14:17:17.732Z,20.11
2018-04-19T14:20:20.986Z,20.13
2018-04-19T14:23:24.280Z,20.53
2018-04-19T14:26:27.520Z,21.31
2018-04-19T14:29:30.783Z,20.75
2018-04-19T14:32:33.977Z,19.41
2018-04-19T14:35:37.187Z,18.81
2018-04-19T14:38:40.468Z,19.47
2018-04-19T14:41:43.660Z,19.43
2018-04-19T14:44:46.954Z,19.16
2018-04-19T14:47:50.252Z,19.09
2018-04-19T14:50:53.544Z,18.75
2018-04-19T14:53:56.787Z,19.59
2018-04-19T14:56:59.949Z,18.10
2018-04-19T15:00:03.568Z,18.90
2018-04-19T15:03:06.857Z,18.18
2018-04-19T15:06:10.082Z,17.38
2018-04-19T15:09:13.736Z,17.99
2018-04-19T15:12:17.452Z,18.30
2018-04-19T15:15:20.740Z,20.57
2018-04-19T15:18:24.032Z,18.99
2018-04-19T15:21:27.359Z,18.19
2018-04-19T15:24:30.741Z,19.10
2018-04-19T15:27:33.857Z,18.83
2018-04-19T15:30:37.537Z,19.31
2018-04-19T15:33:40.773Z,19.80
2018-04-19T15:36:44.032Z,19.23
2018-04-19T15:39:47.435Z,19.30
2018-04-19T15:42:50.731Z,19.51
2018-04-19T15:45:54.031Z,19.29
2018-04-19T15:48:57.370Z,19.43
2018-04-19T15:52:00.622Z,19.42
2018-04-19T15:55:03.943Z,20.06
2018-04-19T15:58:07.249Z,20.23
2018-04-19T16:01:10.604Z,19.38
2018-04-19T16:04:13.999Z,19.17
2018-04-19T16:07:17.213Z,19.44
2018-04-19T16:10:21.259Z,18.67
2018-04-19T16:13:24.515Z,19.27
2018-04-19T16:16:27.880Z,19.20
2018-04-19T16:19:31.031Z,19.55
2018-04-19T16:22:34.422Z,19.42
2018-04-19T16:25:37.724Z,19.09
2018-04-19T16:28:48.618Z,19.84
2018-04-19T16:31:44.494Z,19.06
2018-04-19T16:34:47.699Z,19.43
2018-04-19T16:37:50.931Z,19.82
2018-04-19T16:40:54.475Z,20.35
2018-04-19T16:43:57.696Z,20.07
2018-04-19T16:47:01.954Z,20.63
2018-04-19T16:50:05.213Z,20.17
2018-04-19T16:53:08.460Z,20.60
2018-04-19T16:56:11.791Z,20.91
2018-04-19T16:59:14.940Z,20.75
2018-04-19T17:02:18.122Z,21.27
2018-04-19T17:05:21.506Z,21.42
2018-04-19T17:08:24.783Z,21.24
2018-04-19T17:11:28.005Z,20.85
2018-04-19T17:14:31.314Z,21.32
2018-04-19T17:17:34.624Z,21.42
2018-04-19T17:20:37.934Z,21.59
2018-04-19T17:23:41.115Z,21.77
2018-04-19T17:26:44.324Z,21.96
2018-04-19T17:29:47.517Z,21.92
2018-04-19T17:32:50.708Z,21.75
2018-04-19T17:35:53.951Z,21.99
2018-04-19T17:38:57.194Z,21.97
2018-04-19T17:42:00.401Z,22.53
2018-04-19T17:45:03.660Z,22.68
2018-04-19T17:48:06.938Z,22.59
2018-04-19T17:51:10.180Z,23.04
2018-04-19T17:54:13.372Z,23.73
2018-04-19T17:57:16.648Z,23.70
2018-04-19T18:00:19.878Z,23.68
2018-04-19T18:03:23.008Z,24.02
2018-04-19T18:06:27.241Z,24.23
2018-04-19T18:09:30.488Z,24.22
2018-04-19T18:12:33.761Z,24.47
2018-04-19T18:15:37.020Z,24.36
2018-04-19T18:18:40.335Z,24.38
2018-04-19T18:21:43.565Z,24.50
2018-04-19T18:24:46.815Z,24.63
2018-04-19T18:27:50.129Z,24.59
2018-04-19T18:30:53.416Z,24.67
2018-04-19T18:33:56.728Z,25.06
2018-04-19T18:37:00.099Z,25.12
2018-04-19T18:40:03.340Z,24.73
2018-04-19T18:43:06.539Z,25.39
2018-04-19T18:46:09.737Z,25.43
2018-04-19T18:49:12.998Z,25.71
2018-04-19T18:52:16.387Z,25.84
2018-04-19T18:55:19.520Z,26.28
2018-04-19T18:58:22.715Z,25.77
2018-04-19T19:01:25.977Z,26.53
2018-04-19T19:04:29.298Z,26.28
2018-04-19T19:07:32.524Z,26.33
2018-04-19T19:10:35.782Z,26.49
2018-04-19T19:13:39.166Z,26.60
2018-04-19T19:16:42.502Z,26.74
2018-04-19T19:20:16.820Z,26.26
2018-04-19T19:23:20.088Z,26.39
2018-04-19T19:26:23.327Z,26.78
2018-04-19T19:29:26.610Z,26.94
2018-04-19T19:32:29.893Z,27.08
2018-04-19T19:35:33.242Z,26.99
2018-04-19T19:38:36.625Z,27.46
2018-04-19T19:41:39.899Z,27.60
2018-04-19T19:44:43.272Z,27.83
2018-04-19T19:47:46.507Z,27.86
2018-04-19T19:50:49.687Z,27.70
2018-04-19T19:53:53.001Z,28.04
2018-04-19T19:56:56.293Z,27.94
2018-04-19T19:59:59.561Z,28.44
2018-04-19T20:03:02.964Z,28.36
2018-04-19T20:06:06.256Z,28.59
2018-04-19T20:09:09.555Z,28.78
2018-04-19T20:12:12.969Z,28.60
2018-04-19T20:15:16.260Z,28.82
2018-04-19T20:18:19.555Z,28.83
2018-04-19T20:21:22.948Z,29.05
2018-04-19T20:24:26.282Z,29.69
2018-04-19T20:27:29.570Z,29.52
2018-04-19T20:30:32.877Z,29.67
2018-04-19T20:33:36.240Z,30.08
2018-04-19T20:36:40.035Z,30.23
2018-04-19T20:39:43.340Z,30.38
2018-04-19T20:42:46.473Z,30.47
2018-04-19T20:45:49.744Z,30.95
2018-04-19T20:48:53.325Z,30.85
2018-04-19T20:51:56.631Z,30.55
2018-04-19T20:54:59.944Z,30.44
2018-04-19T20:58:03.244Z,30.54
2018-04-19T21:01:06.749Z,30.41
2018-04-19T21:04:10.032Z,30.54
2018-04-19T21:07:13.284Z,30.49
2018-04-19T21:10:16.628Z,30.81
2018-04-19T21:13:19.869Z,30.71
2018-04-19T21:16:23.135Z,30.68
2018-04-19T21:19:26.476Z,31.10
2018-04-19T21:22:29.750Z,31.53
2018-04-19T21:25:33.148Z,31.54
2018-04-19T21:28:36.404Z,31.86
2018-04-19T21:31:39.703Z,31.67
2018-04-19T21:34:43.004Z,31.50
2018-04-19T21:37:46.295Z,31.66
2018-04-19T21:40:49.527Z,31.93
2018-04-19T21:43:52.703Z,31.88
2018-04-19T21:46:55.992Z,31.88
2018-04-19T21:49:59.407Z,32.80
2018-04-19T21:53:02.701Z,33.04
2018-04-19T21:56:05.915Z,32.65
2018-04-19T21:59:09.296Z,32.62
2018-04-19T22:02:12.572Z,32.60
2018-04-19T22:05:16.157Z,32.61
2018-04-19T22:08:19.403Z,32.69
2018-04-19T22:11:22.700Z,32.45
2018-04-19T22:14:25.972Z,32.54
2018-04-19T22:17:29.262Z,33.11
2018-04-19T22:20:32.576Z,32.97
2018-04-19T22:23:35.855Z,33.45
2018-04-19T22:26:39.164Z,33.12
2018-04-19T22:29:42.447Z,33.67
2018-04-19T22:32:45.691Z,33.83
2018-04-19T22:35:48.970Z,34.03
2018-04-19T22:38:52.504Z,34.54
2018-04-19T22:41:55.657Z,34.76
2018-04-19T22:44:58.949Z,34.96
2018-04-19T22:48:02.500Z,36.32
2018-04-19T22:51:05.847Z,36.84
2018-04-19T22:54:09.153Z,36.92
2018-04-19T22:57:12.551Z,37.57
2018-04-19T23:00:15.858Z,37.64
2018-04-19T23:03:19.131Z,39.14
2018-04-19T23:06:22.481Z,39.13
2018-04-19T23:09:25.760Z,39.40
2018-04-19T23:12:28.967Z,39.49
2018-04-19T23:15:32.223Z,40.14
2018-04-19T23:18:35.535Z,40.96
2018-04-19T23:21:38.813Z,41.42
2018-04-19T23:24:42.128Z,42.01
2018-04-19T23:27:48.600Z,40.91
2018-04-19T23:30:51.899Z,40.86
2018-04-19T23:33:55.241Z,40.36
2018-04-19T23:36:58.588Z,41.37
2018-04-19T23:40:01.904Z,41.13
2018-04-19T23:43:05.193Z,41.19
2018-04-19T23:46:08.588Z,41.26
2018-04-19T23:49:11.883Z,41.32
2018-04-19T23:52:15.996Z,42.15
2018-04-19T23:55:19.315Z,42.68
2018-04-19T23:58:22.542Z,42.24
